Time;durP1;ratioP1;P1;durP2;ratioP2;P2;SDS_P1;SDS_P2;PMS_P1;PMS_P2;Temp;Humidity;BMP_temperature;BMP_pressure;BME280_temperature;BME280_humidity;BME280_pressure;Samples;Min_cycle;Max_cycle;Signal;HPM_P1;HPM_P2
2022/12/06 00:00:24;;;;;;;16.83;4.30;;;;;;;;;;4983917;28;20038;-73
2022/12/06 00:02:49;;;;;;;7.85;3.55;;;;;;;;;;4985894;28;20057;-72
2022/12/06 00:05:15;;;;;;;15.23;3.88;;;;;;;;;;4987728;28;20497;-73
2022/12/06 00:07:40;;;;;;;9.43;3.60;;;;;;;;;;4992236;28;20037;-73
2022/12/06 00:10:06;;;;;;;9.88;3.80;;;;;;;;;;4990798;28;20053;-72
2022/12/06 00:12:32;;;;;;;8.18;3.53;;;;;;;;;;4995441;28;20030;-72
2022/12/06 00:14:57;;;;;;;11.02;4.13;;;;;;;;;;4985576;28;20114;-72
2022/12/06 00:17:23;;;;;;;9.27;3.28;;;;;;;;;;4985104;28;20125;-72
2022/12/06 00:19:48;;;;;;;9.30;2.95;;;;;;;;;;4984466;28;20522;-72
2022/12/06 00:22:14;;;;;;;11.25;3.80;;;;;;;;;;4982215;28;20606;-72
2022/12/06 00:24:39;;;;;;;10.82;4.13;;;;;;;;;;4984391;28;20129;-73
2022/12/06 00:27:05;;;;;;;14.88;4.35;;;;;;;;;;4986984;28;20034;-72
2022/12/06 00:29:31;;;;;;;8.75;3.30;;;;;;;;;;4985258;28;20489;-74
2022/12/06 00:31:56;;;;;;;7.85;3.20;;;;;;;;;;4984883;28;20043;-72
2022/12/06 00:34:21;;;;;;;11.52;3.80;;;;;;;;;;4985996;28;20555;-73
2022/12/06 00:36:47;;;;;;;8.02;3.42;;;;;;;;;;4985183;28;20035;-73
2022/12/06 00:39:15;;;;;;;6.85;2.13;;;;;;;;;;4991246;28;20375;-73
2022/12/06 00:41:40;;;;;;;8.55;3.72;;;;;;;;;;4985872;28;20169;-72
2022/12/06 00:44:06;;;;;;;8.93;2.95;;;;;;;;;;4983961;28;20121;-72
2022/12/06 00:46:32;;;;;;;8.10;3.88;;;;;;;;;;4982293;28;20112;-73
2022/12/06 00:48:59;;;;;;;13.05;3.88;;;;;;;;;;4978933;28;20058;-72
2022/12/06 00:51:26;;;;;;;10.30;3.50;;;;;;;;;;4983756;28;20073;-73
2022/12/06 00:53:52;;;;;;;7.20;3.58;;;;;;;;;;4988969;28;20042;-72
2022/12/06 00:56:18;;;;;;;9.77;2.95;;;;;;;;;;4981291;28;20030;-72
2022/12/06 00:58:43;;;;;;;13.75;4.13;;;;;;;;;;4991456;28;20042;-72
2022/12/06 01:01:18;;;;;;;11.05;2.67;;;;;;;;;;4985646;28;20034;-72
2022/12/06 01:03:44;;;;;;;6.25;3.25;;;;;;;;;;4998090;28;20423;-72
2022/12/06 01:06:12;;;;;;;11.30;3.17;;;;;;;;;;4982497;28;20133;-73
2022/12/06 01:08:38;;;;;;;7.70;3.38;;;;;;;;;;4986121;28;20022;-72
2022/12/06 01:11:04;;;;;;;7.90;3.03;;;;;;;;;;4984884;28;20045;-73
2022/12/06 01:13:29;;;;;;;13.05;3.05;;;;;;;;;;4979036;28;20446;-72
2022/12/06 01:15:56;;;;;;;5.78;2.70;;;;;;;;;;4987684;28;20037;-72
2022/12/06 01:18:21;;;;;;;12.65;2.60;;;;;;;;;;4983166;28;20047;-73
2022/12/06 01:20:47;;;;;;;7.03;2.25;;;;;;;;;;4988732;28;20042;-72
2022/12/06 01:23:13;;;;;;;8.73;2.85;;;;;;;;;;4979937;28;20038;-72
2022/12/06 01:25:38;;;;;;;8.43;3.22;;;;;;;;;;4986132;28;20034;-72
2022/12/06 01:28:04;;;;;;;10.93;3.10;;;;;;;;;;4982984;28;20120;-73
2022/12/06 01:30:29;;;;;;;5.72;2.88;;;;;;;;;;4986261;28;20037;-72
2022/12/06 01:32:55;;;;;;;11.40;3.90;;;;;;;;;;4981254;28;20517;-73
2022/12/06 01:35:20;;;;;;;6.88;3.45;;;;;;;;;;4984232;28;20038;-72
2022/12/06 01:37:46;;;;;;;11.18;3.30;;;;;;;;;;4977721;28;20045;-73
2022/12/06 01:40:12;;;;;;;10.45;3.22;;;;;;;;;;4975840;28;20038;-72
2022/12/06 01:42:37;;;;;;;8.13;3.13;;;;;;;;;;4978530;28;20043;-73
2022/12/06 01:45:03;;;;;;;6.25;3.28;;;;;;;;;;4988189;28;20034;-74
2022/12/06 01:47:32;;;;;;;9.00;2.90;;;;;;;;;;4987767;28;20072;-73
2022/12/06 01:50:05;;;;;;;9.20;3.17;;;;;;;;;;4979501;28;20093;-72
2022/12/06 01:52:34;;;;;;;10.15;3.13;;;;;;;;;;4984706;28;20081;-73
2022/12/06 01:55:00;;;;;;;7.00;2.22;;;;;;;;;;4982940;28;20057;-72
2022/12/06 01:57:26;;;;;;;4.32;2.10;;;;;;;;;;4982302;28;20038;-72
2022/12/06 01:59:51;;;;;;;5.53;2.80;;;;;;;;;;4986169;28;20039;-73
2022/12/06 02:02:16;;;;;;;10.23;3.08;;;;;;;;;;4986284;28;20042;-72
2022/12/06 02:04:43;;;;;;;8.40;3.13;;;;;;;;;;4983142;28;20034;-73
2022/12/06 02:07:10;;;;;;;6.72;2.78;;;;;;;;;;4984821;28;20482;-72
2022/12/06 02:09:35;;;;;;;8.27;3.42;;;;;;;;;;4982547;28;20510;-74
2022/12/06 02:12:01;;;;;;;4.30;2.67;;;;;;;;;;4989095;28;20041;-72
2022/12/06 02:14:30;;;;;;;6.93;2.50;;;;;;;;;;4985906;28;20042;-74
2022/12/06 02:17:12;;;;;;;9.00;3.28;;;;;;;;;;4987711;28;20081;-72
2022/12/06 02:19:58;;;;;;;10.60;3.08;;;;;;;;;;4975236;28;20125;-73
2022/12/06 02:22:35;;;;;;;8.63;3.05;;;;;;;;;;4974883;28;20122;-72
2022/12/06 02:25:22;;;;;;;7.35;3.20;;;;;;;;;;4989447;28;20534;-72
2022/12/06 02:28:10;;;;;;;8.55;1.77;;;;;;;;;;4981002;28;20053;-72
2022/12/06 02:31:11;;;;;;;7.30;2.92;;;;;;;;;;4975008;28;20047;-73
2022/12/06 02:33:50;;;;;;;6.80;2.97;;;;;;;;;;4974115;28;20049;-72
2022/12/06 02:36:26;;;;;;;6.45;2.47;;;;;;;;;;4984515;28;20392;-73
2022/12/06 02:39:06;;;;;;;6.40;2.65;;;;;;;;;;4981964;28;20391;-73
2022/12/06 02:41:43;;;;;;;12.52;3.15;;;;;;;;;;4983247;28;20039;-72
2022/12/06 02:44:15;;;;;;;6.70;2.40;;;;;;;;;;4981753;28;20042;-72
2022/12/06 02:46:42;;;;;;;11.23;2.55;;;;;;;;;;4981521;28;20046;-72
2022/12/06 02:49:09;;;;;;;9.68;3.10;;;;;;;;;;4982415;28;20386;-72
2022/12/06 02:51:35;;;;;;;6.95;2.20;;;;;;;;;;4985529;28;20038;-72
2022/12/06 02:54:02;;;;;;;8.43;3.15;;;;;;;;;;4984403;28;20041;-72
2022/12/06 02:56:30;;;;;;;9.15;3.15;;;;;;;;;;4983631;28;20039;-72
2022/12/06 02:58:56;;;;;;;6.45;2.85;;;;;;;;;;4987010;28;20042;-72
2022/12/06 03:01:27;;;;;;;6.25;2.45;;;;;;;;;;4983647;28;20398;-72
2022/12/06 03:04:30;;;;;;;6.22;2.70;;;;;;;;;;4978644;28;20113;-72
2022/12/06 03:07:26;;;;;;;6.53;2.20;;;;;;;;;;4989904;28;20062;-72
2022/12/06 03:10:10;;;;;;;3.92;2.17;;;;;;;;;;4985189;28;20043;-72
2022/12/06 03:12:39;;;;;;;3.80;2.45;;;;;;;;;;4980809;28;20088;-72
2022/12/06 03:15:15;;;;;;;5.85;2.95;;;;;;;;;;4965088;28;20410;-73
2022/12/06 03:17:47;;;;;;;8.65;2.80;;;;;;;;;;4978613;28;20038;-72
2022/12/06 03:20:19;;;;;;;10.57;2.90;;;;;;;;;;4990374;28;20513;-73
2022/12/06 03:22:51;;;;;;;5.65;2.40;;;;;;;;;;4984942;28;20053;-72
2022/12/06 03:25:16;;;;;;;7.35;3.05;;;;;;;;;;4981539;28;20053;-72
2022/12/06 03:27:42;;;;;;;8.98;3.38;;;;;;;;;;4980700;28;20030;-73
2022/12/06 03:30:10;;;;;;;7.95;2.95;;;;;;;;;;4983497;28;20038;-73
2022/12/06 03:32:37;;;;;;;4.35;2.15;;;;;;;;;;4980771;28;20169;-73
2022/12/06 03:35:06;;;;;;;4.72;2.53;;;;;;;;;;4980068;28;20034;-73
2022/12/06 03:37:32;;;;;;;6.03;3.20;;;;;;;;;;4995301;28;20061;-72
2022/12/06 03:40:05;;;;;;;6.57;2.85;;;;;;;;;;4982873;28;20474;-73
2022/12/06 03:42:30;;;;;;;8.57;3.08;;;;;;;;;;4980641;28;20034;-72
2022/12/06 03:44:57;;;;;;;5.82;2.88;;;;;;;;;;4979438;28;20081;-72
2022/12/06 03:47:27;;;;;;;6.32;2.65;;;;;;;;;;4986389;28;20049;-73
2022/12/06 03:49:57;;;;;;;4.65;2.67;;;;;;;;;;4974559;28;20038;-72
2022/12/06 03:52:23;;;;;;;8.68;2.95;;;;;;;;;;4981509;28;20050;-73
2022/12/06 03:54:49;;;;;;;7.47;2.63;;;;;;;;;;4989015;28;20027;-73
2022/12/06 03:57:14;;;;;;;7.45;3.03;;;;;;;;;;4982111;28;20035;-73
2022/12/06 03:59:39;;;;;;;8.05;2.72;;;;;;;;;;4990253;28;20535;-74
2022/12/06 04:02:05;;;;;;;7.28;2.17;;;;;;;;;;4982864;28;20035;-73
2022/12/06 04:04:30;;;;;;;5.78;2.85;;;;;;;;;;4977308;28;20089;-73
2022/12/06 04:06:56;;;;;;;5.75;2.42;;;;;;;;;;4988570;28;20053;-72
2022/12/06 04:12:59;;;;;;;7.72;2.65;;;;;;;;;;4986123;28;20037;-73
2022/12/06 04:14:50;;;;;;;4.85;1.95;;;;;;;;;;4980479;28;20084;-72
2022/12/06 04:20:00;;;;;;;6.20;2.35;;;;;;;;;;4991484;28;20045;-72
2022/12/06 04:25:10;;;;;;;6.47;2.83;;;;;;;;;;4983452;28;20556;-72
2022/12/06 04:38:41;;;;;;;9.55;2.60;;;;;;;;;;4983545;28;20046;-72
2022/12/06 04:41:07;;;;;;;8.73;2.65;;;;;;;;;;4985452;28;20042;-72
2022/12/06 04:43:41;;;;;;;11.13;2.95;;;;;;;;;;4983611;28;20150;-72
2022/12/06 04:46:11;;;;;;;8.73;2.65;;;;;;;;;;4991460;28;20410;-72
2022/12/06 04:48:37;;;;;;;6.18;2.53;;;;;;;;;;4987773;28;20082;-73
2022/12/06 04:51:02;;;;;;;5.35;2.95;;;;;;;;;;4989845;28;20080;-72
2022/12/06 04:53:27;;;;;;;8.55;3.10;;;;;;;;;;4985682;28;20030;-72
2022/12/06 04:55:53;;;;;;;8.23;2.40;;;;;;;;;;4990754;28;20511;-72
2022/12/06 04:58:18;;;;;;;7.22;2.80;;;;;;;;;;4986402;28;20454;-72
2022/12/06 05:00:44;;;;;;;7.93;2.20;;;;;;;;;;4979129;28;20138;-72
2022/12/06 05:03:10;;;;;;;5.50;2.78;;;;;;;;;;4984076;28;20038;-72
2022/12/06 05:05:36;;;;;;;10.65;2.78;;;;;;;;;;4990852;28;20046;-72
2022/12/06 05:08:01;;;;;;;5.07;2.30;;;;;;;;;;4986689;28;20446;-72
2022/12/06 05:10:26;;;;;;;6.90;2.75;;;;;;;;;;4985205;28;20042;-73
2022/12/06 05:12:52;;;;;;;9.55;2.75;;;;;;;;;;4988550;28;20045;-72
2022/12/06 05:15:17;;;;;;;9.65;2.88;;;;;;;;;;4991316;28;20038;-72
2022/12/06 05:17:43;;;;;;;8.23;2.60;;;;;;;;;;4985810;28;20483;-72
2022/12/06 05:20:08;;;;;;;5.97;1.75;;;;;;;;;;4988427;28;20042;-72
2022/12/06 05:22:34;;;;;;;5.25;2.42;;;;;;;;;;4986931;28;20113;-73
2022/12/06 05:24:59;;;;;;;9.02;3.08;;;;;;;;;;4989427;28;20096;-72
2022/12/06 05:27:24;;;;;;;11.90;2.33;;;;;;;;;;4990296;28;20061;-73
2022/12/06 05:29:50;;;;;;;3.33;1.90;;;;;;;;;;4989932;28;20129;-72
2022/12/06 05:32:15;;;;;;;5.25;2.63;;;;;;;;;;4988371;28;20092;-72
2022/12/06 05:34:41;;;;;;;7.35;2.70;;;;;;;;;;4991762;28;20073;-73
2022/12/06 05:37:06;;;;;;;12.23;2.42;;;;;;;;;;4984783;28;20033;-72
2022/12/06 05:39:31;;;;;;;13.05;2.90;;;;;;;;;;4987640;28;20058;-73
2022/12/06 05:41:57;;;;;;;5.07;2.22;;;;;;;;;;4989513;28;20042;-72
2022/12/06 05:44:22;;;;;;;6.85;2.28;;;;;;;;;;4987055;28;20038;-72
2022/12/06 05:46:47;;;;;;;3.92;1.67;;;;;;;;;;4983783;28;20045;-73
2022/12/06 05:49:13;;;;;;;10.60;1.92;;;;;;;;;;4981171;28;20047;-72
2022/12/06 05:51:38;;;;;;;6.57;2.03;;;;;;;;;;4980566;28;20042;-72
2022/12/06 05:54:05;;;;;;;5.88;1.90;;;;;;;;;;4979441;28;20046;-72
2022/12/06 05:56:31;;;;;;;5.65;1.85;;;;;;;;;;4983850;28;20078;-72
2022/12/06 05:58:56;;;;;;;5.50;1.90;;;;;;;;;;4979039;28;20039;-72
2022/12/06 06:01:22;;;;;;;5.50;1.70;;;;;;;;;;4984404;28;20112;-72
2022/12/06 06:03:47;;;;;;;3.25;1.05;;;;;;;;;;4979879;28;20034;-72
2022/12/06 06:06:13;;;;;;;7.20;1.65;;;;;;;;;;4992934;28;20044;-72
2022/12/06 06:08:38;;;;;;;9.52;1.75;;;;;;;;;;4980954;28;20043;-72
2022/12/06 06:11:03;;;;;;;8.45;2.20;;;;;;;;;;4986700;28;20117;-73
2022/12/06 06:13:29;;;;;;;3.80;1.52;;;;;;;;;;4981487;28;20046;-73
2022/12/06 06:15:55;;;;;;;10.45;1.90;;;;;;;;;;4989241;28;20066;-72
2022/12/06 06:18:20;;;;;;;5.38;2.10;;;;;;;;;;4982229;28;20039;-72
2022/12/06 06:20:50;;;;;;;8.45;1.85;;;;;;;;;;4983915;28;20111;-72
2022/12/06 06:23:16;;;;;;;8.35;2.17;;;;;;;;;;4979292;28;20046;-72
2022/12/06 06:25:41;;;;;;;7.22;1.80;;;;;;;;;;4978873;28;20043;-72
2022/12/06 06:28:07;;;;;;;12.23;1.60;;;;;;;;;;4983626;28;20034;-72
2022/12/06 06:30:32;;;;;;;5.80;1.83;;;;;;;;;;4982380;28;20368;-74
2022/12/06 06:32:57;;;;;;;7.63;1.70;;;;;;;;;;4985778;28;20035;-72
2022/12/06 06:35:23;;;;;;;6.88;1.80;;;;;;;;;;4980907;28;20572;-73
2022/12/06 06:37:48;;;;;;;4.57;1.58;;;;;;;;;;4986322;28;20386;-72
2022/12/06 06:40:14;;;;;;;6.13;1.90;;;;;;;;;;4986231;28;20038;-72
2022/12/06 06:42:39;;;;;;;6.20;1.52;;;;;;;;;;4976916;28;20493;-72
2022/12/06 06:45:05;;;;;;;8.02;1.70;;;;;;;;;;4978094;28;20018;-72
2022/12/06 06:47:31;;;;;;;7.20;1.63;;;;;;;;;;4984179;28;20081;-72
2022/12/06 06:49:56;;;;;;;6.97;1.23;;;;;;;;;;4988801;28;20039;-72
2022/12/06 06:52:21;;;;;;;10.90;1.80;;;;;;;;;;4986294;28;20034;-72
2022/12/06 06:54:47;;;;;;;7.53;1.75;;;;;;;;;;4977929;28;20082;-72
2022/12/06 06:57:13;;;;;;;12.05;1.90;;;;;;;;;;4987266;28;20038;-72
2022/12/06 06:59:38;;;;;;;4.40;1.85;;;;;;;;;;4976397;28;20070;-72
2022/12/06 07:02:03;;;;;;;10.38;1.50;;;;;;;;;;4990104;28;20046;-72
2022/12/06 07:04:29;;;;;;;7.15;1.83;;;;;;;;;;4982235;28;20453;-72
2022/12/06 07:06:54;;;;;;;7.75;1.90;;;;;;;;;;4984474;28;20457;-72
2022/12/06 07:09:20;;;;;;;6.05;1.50;;;;;;;;;;4977943;28;20125;-72
2022/12/06 07:11:45;;;;;;;2.60;1.52;;;;;;;;;;4977135;28;20065;-73
2022/12/06 07:14:11;;;;;;;9.80;1.85;;;;;;;;;;4979058;28;20050;-72
2022/12/06 07:16:36;;;;;;;3.95;1.60;;;;;;;;;;4982061;28;20035;-72
2022/12/06 07:19:02;;;;;;;6.57;1.50;;;;;;;;;;4974053;28;20118;-72
2022/12/06 07:21:28;;;;;;;10.27;1.77;;;;;;;;;;4988162;28;20069;-72
2022/12/06 07:23:53;;;;;;;5.10;1.65;;;;;;;;;;4983086;28;20030;-72
2022/12/06 07:26:21;;;;;;;3.60;1.33;;;;;;;;;;4986494;28;20406;-72
2022/12/06 07:28:48;;;;;;;11.68;1.85;;;;;;;;;;4982143;28;20034;-72
2022/12/06 07:31:14;;;;;;;9.07;1.60;;;;;;;;;;4980137;28;20050;-72
2022/12/06 07:33:40;;;;;;;8.23;1.65;;;;;;;;;;4975329;28;20182;-72
2022/12/06 07:36:06;;;;;;;3.17;1.20;;;;;;;;;;5007338;28;20034;-73
2022/12/06 07:38:31;;;;;;;10.90;1.50;;;;;;;;;;4922195;28;20061;-72
2022/12/06 07:46:41;;;;;;;3.80;1.40;;;;;;;;;;4981173;28;20041;-72
2022/12/06 07:49:07;;;;;;;2.72;1.15;;;;;;;;;;4983244;28;20498;-72
2022/12/06 07:51:32;;;;;;;14.30;2.20;;;;;;;;;;4960324;28;20121;-73
2022/12/06 07:53:59;;;;;;;6.18;1.60;;;;;;;;;;4915108;28;20054;-72
2022/12/06 07:56:24;;;;;;;7.18;1.65;;;;;;;;;;4954992;28;20034;-72
2022/12/06 07:58:50;;;;;;;4.30;1.60;;;;;;;;;;4840532;28;20043;-72
2022/12/06 08:01:15;;;;;;;10.32;1.98;;;;;;;;;;4961342;28;20045;-73
2022/12/06 08:03:41;;;;;;;4.43;1.98;;;;;;;;;;4959330;28;20110;-72
2022/12/06 08:06:07;;;;;;;9.18;1.85;;;;;;;;;;4960817;28;20035;-72
2022/12/06 08:08:33;;;;;;;8.45;2.10;;;;;;;;;;4962398;28;20049;-71
2022/12/06 08:11:00;;;;;;;6.90;1.88;;;;;;;;;;4967159;28;20046;-72
2022/12/06 08:13:25;;;;;;;2.05;0.93;;;;;;;;;;4977013;28;20057;-72
2022/12/06 08:15:51;;;;;;;10.68;2.08;;;;;;;;;;4983761;28;20069;-72
2022/12/06 08:18:16;;;;;;;4.40;1.70;;;;;;;;;;4992689;28;20469;-73
2022/12/06 08:20:42;;;;;;;9.23;1.65;;;;;;;;;;4994022;28;20078;-72
2022/12/06 08:23:08;;;;;;;8.15;1.98;;;;;;;;;;4966909;28;20126;-73
2022/12/06 08:25:33;;;;;;;6.75;2.10;;;;;;;;;;4983481;28;20046;-72
2022/12/06 08:27:58;;;;;;;7.50;1.80;;;;;;;;;;4976930;28;20035;-72
2022/12/06 08:30:24;;;;;;;9.15;1.67;;;;;;;;;;4979437;28;20042;-72
2022/12/06 08:32:49;;;;;;;4.32;1.58;;;;;;;;;;4980652;28;20372;-73
2022/12/06 08:35:14;;;;;;;5.18;1.83;;;;;;;;;;4967647;28;20941;-75
2022/12/06 08:37:40;;;;;;;3.60;1.55;;;;;;;;;;4980681;28;20057;-73
2022/12/06 08:40:06;;;;;;;6.68;1.63;;;;;;;;;;4970328;28;20050;-73
2022/12/06 08:42:31;;;;;;;4.30;1.60;;;;;;;;;;4973006;28;20031;-72
2022/12/06 08:44:57;;;;;;;5.43;2.00;;;;;;;;;;4981119;28;20033;-72
2022/12/06 08:47:22;;;;;;;5.00;1.50;;;;;;;;;;4984621;28;20046;-72
2022/12/06 08:49:48;;;;;;;5.53;1.50;;;;;;;;;;4973058;28;20022;-72
2022/12/06 08:52:14;;;;;;;8.02;1.65;;;;;;;;;;4974104;28;20401;-74
2022/12/06 08:54:40;;;;;;;10.23;1.80;;;;;;;;;;4977158;28;20034;-73
2022/12/06 08:57:05;;;;;;;3.70;1.70;;;;;;;;;;4969117;28;20494;-74
2022/12/06 08:59:31;;;;;;;8.35;1.75;;;;;;;;;;4975385;28;20101;-73
2022/12/06 09:01:56;;;;;;;9.38;1.42;;;;;;;;;;4976223;28;20042;-73
2022/12/06 09:04:22;;;;;;;3.53;1.30;;;;;;;;;;4978461;28;20109;-73
2022/12/06 09:06:47;;;;;;;4.80;1.70;;;;;;;;;;4973735;28;20042;-74
2022/12/06 09:09:15;;;;;;;4.80;1.35;;;;;;;;;;4971346;28;20042;-73
2022/12/06 09:11:41;;;;;;;4.97;1.75;;;;;;;;;;4958927;28;20426;-73
2022/12/06 09:14:10;;;;;;;7.10;1.90;;;;;;;;;;4989334;28;20041;-74
2022/12/06 09:16:35;;;;;;;7.95;2.00;;;;;;;;;;4988429;28;20042;-74
2022/12/06 09:19:01;;;;;;;6.63;1.70;;;;;;;;;;4983950;28;20467;-73
2022/12/06 09:21:29;;;;;;;5.22;1.52;;;;;;;;;;4979024;28;20030;-73
2022/12/06 09:23:55;;;;;;;2.38;1.10;;;;;;;;;;4976820;28;20043;-72
2022/12/06 09:26:21;;;;;;;4.38;1.50;;;;;;;;;;4987893;28;20038;-73
2022/12/06 09:28:50;;;;;;;5.43;1.50;;;;;;;;;;4989135;28;20485;-71
2022/12/06 09:31:17;;;;;;;5.82;1.67;;;;;;;;;;4984452;28;20517;-73
2022/12/06 09:33:42;;;;;;;5.18;1.38;;;;;;;;;;4982127;28;20066;-72
2022/12/06 09:36:21;;;;;;;4.97;1.85;;;;;;;;;;4990390;28;20054;-71
2022/12/06 09:38:54;;;;;;;5.85;1.80;;;;;;;;;;4988181;28;20050;-71
2022/12/06 09:41:33;;;;;;;6.60;1.65;;;;;;;;;;4989922;28;20033;-74
2022/12/06 09:44:23;;;;;;;4.53;1.80;;;;;;;;;;4985488;28;20089;-72
2022/12/06 09:46:55;;;;;;;7.70;1.50;;;;;;;;;;4988509;28;20050;-73
2022/12/06 09:49:55;;;;;;;12.10;1.85;;;;;;;;;;4999683;28;20055;-74
2022/12/06 09:52:21;;;;;;;6.70;1.90;;;;;;;;;;4759543;28;20056;-73
2022/12/06 09:55:06;;;;;;;4.97;1.35;;;;;;;;;;4814151;28;20056;-72
2022/12/06 09:57:44;;;;;;;4.82;1.30;;;;;;;;;;4977351;28;20237;-74
2022/12/06 10:00:21;;;;;;;7.25;2.08;;;;;;;;;;4987474;28;20138;-74
2022/12/06 10:03:11;;;;;;;3.20;1.42;;;;;;;;;;4980304;28;20030;-74
2022/12/06 10:05:57;;;;;;;4.00;1.55;;;;;;;;;;4986110;28;20073;-73
2022/12/06 10:08:49;;;;;;;3.72;1.30;;;;;;;;;;4979516;28;20031;-74
2022/12/06 10:11:15;;;;;;;10.15;1.50;;;;;;;;;;4982719;28;20070;-74
2022/12/06 10:14:06;;;;;;;4.03;1.52;;;;;;;;;;4977868;28;20554;-73
2022/12/06 10:16:44;;;;;;;3.42;1.48;;;;;;;;;;4980761;28;20060;-73
2022/12/06 10:19:31;;;;;;;5.22;1.60;;;;;;;;;;4955984;28;20538;-73
2022/12/06 10:21:59;;;;;;;4.28;1.55;;;;;;;;;;4979636;28;20042;-73
2022/12/06 10:24:44;;;;;;;9.25;1.80;;;;;;;;;;5017789;28;20442;-73
2022/12/06 10:27:12;;;;;;;7.70;1.35;;;;;;;;;;4976855;28;20469;-73
2022/12/06 10:29:37;;;;;;;3.35;1.20;;;;;;;;;;4976882;28;20499;-75
2022/12/06 10:32:15;;;;;;;6.00;1.80;;;;;;;;;;4970923;28;20057;-74
2022/12/06 10:34:55;;;;;;;3.83;1.52;;;;;;;;;;4964347;28;20436;-75
2022/12/06 10:37:26;;;;;;;6.07;1.63;;;;;;;;;;4973735;28;20038;-73
2022/12/06 10:39:55;;;;;;;5.53;1.73;;;;;;;;;;4978854;28;20042;-74
2022/12/06 10:42:33;;;;;;;4.95;1.73;;;;;;;;;;4987430;28;20039;-74
2022/12/06 10:47:02;;;;;;;5.95;1.65;;;;;;;;;;4985514;28;20049;-73
2022/12/06 10:47:57;;;;;;;4.28;1.85;;;;;;;;;;4973322;28;20402;-73
2022/12/06 10:50:29;;;;;;;5.03;1.90;;;;;;;;;;4966706;28;20146;-73
2022/12/06 10:53:00;;;;;;;3.45;1.45;;;;;;;;;;4986557;28;20030;-73
2022/12/06 10:55:34;;;;;;;3.55;1.55;;;;;;;;;;4987154;28;20042;-73
2022/12/06 10:58:07;;;;;;;7.68;1.95;;;;;;;;;;4969995;28;20569;-73
2022/12/06 11:00:50;;;;;;;11.27;1.98;;;;;;;;;;4983000;28;20035;-73
2022/12/06 11:03:38;;;;;;;4.63;1.88;;;;;;;;;;4981283;28;20069;-74
2022/12/06 11:06:11;;;;;;;2.90;1.48;;;;;;;;;;4957284;28;20038;-73
2022/12/06 11:08:41;;;;;;;4.43;1.77;;;;;;;;;;4981037;28;20603;-74
2022/12/06 11:11:13;;;;;;;7.78;2.28;;;;;;;;;;4987930;28;20386;-73
2022/12/06 11:13:46;;;;;;;3.38;1.85;;;;;;;;;;4977782;28;20046;-74
2022/12/06 11:16:19;;;;;;;4.75;1.83;;;;;;;;;;4976831;28;20038;-76
2022/12/06 11:18:46;;;;;;;7.33;2.37;;;;;;;;;;4951718;28;20066;-74
2022/12/06 11:21:23;;;;;;;3.45;1.73;;;;;;;;;;4975581;28;20050;-73
2022/12/06 11:23:59;;;;;;;4.65;1.67;;;;;;;;;;4978430;28;20062;-73
2022/12/06 11:26:34;;;;;;;4.95;1.95;;;;;;;;;;4982450;28;20044;-74
2022/12/06 11:29:06;;;;;;;5.50;1.77;;;;;;;;;;4970346;28;20112;-73
2022/12/06 11:32:07;;;;;;;6.15;2.13;;;;;;;;;;4986560;28;20046;-73
2022/12/06 11:34:40;;;;;;;7.18;1.98;;;;;;;;;;4950418;28;20043;-73
2022/12/06 11:37:06;;;;;;;5.40;1.65;;;;;;;;;;4978070;28;20054;-74
2022/12/06 11:39:33;;;;;;;3.03;1.50;;;;;;;;;;4983912;28;20050;-74
2022/12/06 11:42:01;;;;;;;4.90;2.10;;;;;;;;;;4981578;28;20045;-74
2022/12/06 11:44:39;;;;;;;5.97;1.73;;;;;;;;;;4980246;28;20061;-74
2022/12/06 11:47:05;;;;;;;7.88;1.80;;;;;;;;;;4965698;28;20410;-73
2022/12/06 11:49:37;;;;;;;3.35;1.63;;;;;;;;;;4984495;28;20038;-73
2022/12/06 11:52:07;;;;;;;7.47;1.77;;;;;;;;;;4988109;28;20046;-73
2022/12/06 11:54:37;;;;;;;6.57;2.00;;;;;;;;;;4985406;28;20478;-73
2022/12/06 11:57:14;;;;;;;2.60;1.35;;;;;;;;;;4979864;28;20386;-73
2022/12/06 12:00:17;;;;;;;4.28;1.90;;;;;;;;;;4982639;28;20076;-73
2022/12/06 12:02:45;;;;;;;4.57;1.90;;;;;;;;;;4976264;28;20050;-73
2022/12/06 12:05:24;;;;;;;6.18;2.10;;;;;;;;;;4988808;28;20395;-73
2022/12/06 12:07:54;;;;;;;8.40;2.15;;;;;;;;;;4981962;28;20043;-73
2022/12/06 12:10:37;;;;;;;3.65;1.77;;;;;;;;;;4984874;28;20394;-73
2022/12/06 12:16:01;;;;;;;7.50;1.80;;;;;;;;;;4971042;28;20053;-73
2022/12/06 12:18:35;;;;;;;5.45;1.80;;;;;;;;;;4982400;28;20042;-73
2022/12/06 12:21:01;;;;;;;4.65;1.52;;;;;;;;;;4981715;28;20628;-74
2022/12/06 12:23:35;;;;;;;6.88;2.00;;;;;;;;;;4976107;28;20027;-72
2022/12/06 12:26:10;;;;;;;7.28;1.67;;;;;;;;;;4966865;28;20112;-73
2022/12/06 12:28:37;;;;;;;6.05;1.77;;;;;;;;;;4860229;28;20086;-73
2022/12/06 12:31:20;;;;;;;4.30;1.83;;;;;;;;;;4969784;28;20097;-73
2022/12/06 12:33:46;;;;;;;6.63;1.65;;;;;;;;;;4844632;28;20102;-73
2022/12/06 12:36:21;;;;;;;4.72;2.00;;;;;;;;;;4957589;28;20027;-73
2022/12/06 12:38:56;;;;;;;4.80;1.60;;;;;;;;;;4981240;28;20537;-73
2022/12/06 12:41:41;;;;;;;4.70;1.73;;;;;;;;;;4971389;28;20383;-74
2022/12/06 12:44:27;;;;;;;5.95;1.95;;;;;;;;;;4809501;28;22608;-73
2022/12/06 12:47:15;;;;;;;3.78;1.65;;;;;;;;;;4953458;28;20540;-73
2022/12/06 12:49:40;;;;;;;4.35;1.85;;;;;;;;;;5005144;28;20031;-74
2022/12/06 12:52:26;;;;;;;6.60;1.42;;;;;;;;;;4971371;28;20046;-73
2022/12/06 12:55:22;;;;;;;3.22;1.27;;;;;;;;;;4973073;28;20030;-75
2022/12/06 12:57:51;;;;;;;4.20;1.38;;;;;;;;;;4959615;28;20051;-73
2022/12/06 13:00:19;;;;;;;4.25;1.55;;;;;;;;;;4980520;28;20053;-73
2022/12/06 13:02:49;;;;;;;8.18;1.60;;;;;;;;;;4983332;28;20084;-73
2022/12/06 13:05:21;;;;;;;3.85;1.40;;;;;;;;;;4985397;28;20038;-73
2022/12/06 13:07:48;;;;;;;3.58;1.48;;;;;;;;;;4986726;28;20538;-72
2022/12/06 13:10:14;;;;;;;2.50;1.38;;;;;;;;;;4988434;28;20034;-73
2022/12/06 13:12:40;;;;;;;4.38;1.25;;;;;;;;;;4983201;28;20379;-72
2022/12/06 13:15:35;;;;;;;4.28;1.90;;;;;;;;;;4979630;28;20057;-73
2022/12/06 13:18:19;;;;;;;3.03;1.20;;;;;;;;;;4979932;28;20050;-73
2022/12/06 13:20:45;;;;;;;2.85;1.15;;;;;;;;;;4978456;28;20455;-72
2022/12/06 13:23:17;;;;;;;3.88;1.38;;;;;;;;;;4980265;28;20133;-72
2022/12/06 13:25:46;;;;;;;4.50;1.40;;;;;;;;;;4974718;28;20125;-73
2022/12/06 13:28:16;;;;;;;5.82;1.73;;;;;;;;;;4980433;28;20042;-73
2022/12/06 13:30:42;;;;;;;3.25;1.20;;;;;;;;;;4976436;28;20081;-73
2022/12/06 13:33:34;;;;;;;3.83;1.17;;;;;;;;;;4977387;28;20054;-73
2022/12/06 13:36:11;;;;;;;2.22;1.10;;;;;;;;;;4986687;28;20057;-73
2022/12/06 13:38:38;;;;;;;3.00;1.10;;;;;;;;;;4988435;28;20092;-74
2022/12/06 13:41:05;;;;;;;3.58;1.20;;;;;;;;;;4984293;28;20034;-72
2022/12/06 13:43:30;;;;;;;4.40;1.42;;;;;;;;;;4982795;28;20065;-74
2022/12/06 13:46:08;;;;;;;2.95;1.27;;;;;;;;;;4982567;28;20066;-73
2022/12/06 13:49:02;;;;;;;3.05;1.27;;;;;;;;;;4981607;28;20050;-73
2022/12/06 13:51:31;;;;;;;3.22;1.45;;;;;;;;;;4975730;28;20042;-73
2022/12/06 13:54:03;;;;;;;5.65;1.52;;;;;;;;;;4982031;28;20506;-73
2022/12/06 13:56:32;;;;;;;1.92;1.10;;;;;;;;;;4989466;28;20046;-73
2022/12/06 13:59:19;;;;;;;2.55;1.15;;;;;;;;;;4989079;28;20045;-73
2022/12/06 14:01:55;;;;;;;1.55;0.90;;;;;;;;;;4981072;28;20145;-73
2022/12/06 14:04:24;;;;;;;1.38;0.80;;;;;;;;;;4980437;28;20438;-73
2022/12/06 14:07:10;;;;;;;6.15;0.90;;;;;;;;;;4986575;28;20061;-73
2022/12/06 14:09:40;;;;;;;1.98;1.00;;;;;;;;;;4973487;28;20498;-73
2022/12/06 14:12:19;;;;;;;3.08;0.90;;;;;;;;;;4978803;28;20506;-73
2022/12/06 14:14:56;;;;;;;1.25;0.70;;;;;;;;;;4982741;28;20047;-73
2022/12/06 14:17:24;;;;;;;1.83;0.90;;;;;;;;;;4985841;28;20089;-75
2022/12/06 14:19:50;;;;;;;1.33;0.80;;;;;;;;;;4985550;28;20094;-73
2022/12/06 14:22:22;;;;;;;2.00;1.10;;;;;;;;;;4981276;28;20059;-73
2022/12/06 14:25:00;;;;;;;1.17;0.82;;;;;;;;;;4963867;28;20076;-73
2022/12/06 14:27:29;;;;;;;1.42;0.70;;;;;;;;;;4978745;28;20046;-73
2022/12/06 14:29:59;;;;;;;3.65;0.90;;;;;;;;;;4987094;28;20026;-72
2022/12/06 14:32:41;;;;;;;4.05;0.85;;;;;;;;;;4988533;28;20441;-73
2022/12/06 14:35:14;;;;;;;0.85;0.55;;;;;;;;;;4979388;28;20046;-73
2022/12/06 14:37:58;;;;;;;3.13;1.23;;;;;;;;;;4984954;28;20042;-73
2022/12/06 14:43:30;;;;;;;2.30;1.00;;;;;;;;;;4979226;28;20095;-73
2022/12/06 14:45:57;;;;;;;2.42;1.17;;;;;;;;;;4975567;28;20478;-73
2022/12/06 14:48:23;;;;;;;1.45;0.85;;;;;;;;;;4963931;28;20583;-73
2022/12/06 14:51:00;;;;;;;2.35;0.90;;;;;;;;;;4974419;28;20043;-73
2022/12/06 14:53:31;;;;;;;2.20;1.13;;;;;;;;;;4958100;28;20086;-74
2022/12/06 14:56:01;;;;;;;2.88;1.30;;;;;;;;;;4960266;28;20937;-73
2022/12/06 14:58:33;;;;;;;4.47;1.00;;;;;;;;;;4988332;28;20104;-72
2022/12/06 15:01:21;;;;;;;2.35;1.30;;;;;;;;;;4977201;28;20042;-73
2022/12/06 15:04:05;;;;;;;4.25;1.75;;;;;;;;;;4978890;28;20039;-73
2022/12/06 15:06:32;;;;;;;3.67;1.60;;;;;;;;;;5016421;28;20506;-73
2022/12/06 15:08:58;;;;;;;2.25;1.15;;;;;;;;;;4981457;28;20039;-72
2022/12/06 15:14:27;;;;;;;6.55;1.92;;;;;;;;;;4978099;28;20049;-73
2022/12/06 15:16:56;;;;;;;3.97;1.50;;;;;;;;;;4978901;28;20034;-72
2022/12/06 15:19:22;;;;;;;4.00;1.60;;;;;;;;;;4986411;28;20371;-73
2022/12/06 15:21:51;;;;;;;5.85;2.13;;;;;;;;;;4989862;28;20046;-73
2022/12/06 15:24:19;;;;;;;5.43;1.58;;;;;;;;;;4981143;28;20122;-74
2022/12/06 15:26:46;;;;;;;2.78;1.40;;;;;;;;;;4988231;28;20433;-73
2022/12/06 15:29:11;;;;;;;4.57;1.50;;;;;;;;;;4992268;28;20038;-73
2022/12/06 15:31:37;;;;;;;3.30;1.42;;;;;;;;;;4976839;28;20042;-72